sensor_id;sensor_type;location;lat;lon;timestamp;temperature;humidity
23291;DHT22;11814;44.686;10.842;2023-07-13T00:02:23;27.70;99.90
23291;DHT22;11814;44.686;10.842;2023-07-13T00:04:55;27.70;99.90
23291;DHT22;11814;44.686;10.842;2023-07-13T00:07:23;27.70;99.90
23291;DHT22;11814;44.686;10.842;2023-07-13T00:09:49;27.60;99.90
23291;DHT22;11814;44.686;10.842;2023-07-13T00:12:36;27.60;99.90
23291;DHT22;11814;44.686;10.842;2023-07-13T00:15:09;27.60;99.90
23291;DHT22;11814;44.686;10.842;2023-07-13T00:17:39;27.60;99.90
23291;DHT22;11814;44.686;10.842;2023-07-13T00:20:09;27.60;99.90
23291;DHT22;11814;44.686;10.842;2023-07-13T00:22:38;27.60;99.90
23291;DHT22;11814;44.686;10.842;2023-07-13T00:25:10;27.60;99.90
23291;DHT22;11814;44.686;10.842;2023-07-13T00:27:38;27.60;99.90
23291;DHT22;11814;44.686;10.842;2023-07-13T00:30:05;27.60;99.90
23291;DHT22;11814;44.686;10.842;2023-07-13T00:32:31;27.60;99.90
23291;DHT22;11814;44.686;10.842;2023-07-13T00:34:57;27.60;99.90
23291;DHT22;11814;44.686;10.842;2023-07-13T00:37:24;27.60;99.90
23291;DHT22;11814;44.686;10.842;2023-07-13T00:39:49;27.60;99.90
23291;DHT22;11814;44.686;10.842;2023-07-13T00:42:15;27.60;99.90
23291;DHT22;11814;44.686;10.842;2023-07-13T00:47:46;27.60;99.90
23291;DHT22;11814;44.686;10.842;2023-07-13T00:50:20;27.60;99.90
23291;DHT22;11814;44.686;10.842;2023-07-13T00:52:53;27.60;99.90
23291;DHT22;11814;44.686;10.842;2023-07-13T00:55:21;27.50;99.90
23291;DHT22;11814;44.686;10.842;2023-07-13T00:57:56;27.50;99.90
23291;DHT22;11814;44.686;10.842;2023-07-13T01:00:23;27.50;99.90
23291;DHT22;11814;44.686;10.842;2023-07-13T01:02:51;27.60;99.90
23291;DHT22;11814;44.686;10.842;2023-07-13T01:05:19;27.60;99.90
23291;DHT22;11814;44.686;10.842;2023-07-13T01:07:50;27.60;99.90
23291;DHT22;11814;44.686;10.842;2023-07-13T01:10:22;27.60;99.90
23291;DHT22;11814;44.686;10.842;2023-07-13T01:12:48;27.70;99.90
23291;DHT22;11814;44.686;10.842;2023-07-13T01:15:52;27.70;99.90
23291;DHT22;11814;44.686;10.842;2023-07-13T01:18:35;27.60;99.90
23291;DHT22;11814;44.686;10.842;2023-07-13T01:21:21;27.60;99.90
23291;DHT22;11814;44.686;10.842;2023-07-13T01:23:47;27.60;99.90
23291;DHT22;11814;44.686;10.842;2023-07-13T01:26:13;27.60;99.90
23291;DHT22;11814;44.686;10.842;2023-07-13T01:28:39;27.60;99.90
23291;DHT22;11814;44.686;10.842;2023-07-13T01:31:08;27.50;99.40
23291;DHT22;11814;44.686;10.842;2023-07-13T01:33:41;27.50;98.30
23291;DHT22;11814;44.686;10.842;2023-07-13T01:36:10;27.40;97.50
23291;DHT22;11814;44.686;10.842;2023-07-13T01:38:39;27.40;96.90
23291;DHT22;11814;44.686;10.842;2023-07-13T01:41:08;27.30;96.20
23291;DHT22;11814;44.686;10.842;2023-07-13T01:43:36;27.30;95.70
23291;DHT22;11814;44.686;10.842;2023-07-13T01:46:02;27.30;95.40
23291;DHT22;11814;44.686;10.842;2023-07-13T01:48:28;27.30;95.20
23291;DHT22;11814;44.686;10.842;2023-07-13T01:50:56;27.10;95.00
23291;DHT22;11814;44.686;10.842;2023-07-13T01:53:22;27.00;95.10
23291;DHT22;11814;44.686;10.842;2023-07-13T01:55:56;27.00;95.30
23291;DHT22;11814;44.686;10.842;2023-07-13T01:58:24;27.00;95.30
23291;DHT22;11814;44.686;10.842;2023-07-13T02:00:51;27.00;95.20
23291;DHT22;11814;44.686;10.842;2023-07-13T02:03:17;27.00;95.10
23291;DHT22;11814;44.686;10.842;2023-07-13T02:05:45;26.90;95.00
23291;DHT22;11814;44.686;10.842;2023-07-13T02:08:11;27.00;95.00
23291;DHT22;11814;44.686;10.842;2023-07-13T02:10:40;26.90;95.00
23291;DHT22;11814;44.686;10.842;2023-07-13T02:13:06;26.80;95.00
23291;DHT22;11814;44.686;10.842;2023-07-13T02:15:32;26.90;95.10
23291;DHT22;11814;44.686;10.842;2023-07-13T02:17:58;26.80;95.10
23291;DHT22;11814;44.686;10.842;2023-07-13T02:20:24;26.80;95.30
23291;DHT22;11814;44.686;10.842;2023-07-13T02:22:50;26.80;95.10
23291;DHT22;11814;44.686;10.842;2023-07-13T02:25:16;26.80;94.90
23291;DHT22;11814;44.686;10.842;2023-07-13T02:27:42;26.80;94.80
23291;DHT22;11814;44.686;10.842;2023-07-13T02:30:11;26.80;94.90
23291;DHT22;11814;44.686;10.842;2023-07-13T02:32:37;26.80;95.10
23291;DHT22;11814;44.686;10.842;2023-07-13T02:35:03;26.70;95.20
23291;DHT22;11814;44.686;10.842;2023-07-13T02:37:29;26.70;95.50
23291;DHT22;11814;44.686;10.842;2023-07-13T02:39:55;26.70;95.70
23291;DHT22;11814;44.686;10.842;2023-07-13T02:42:21;26.60;95.90
23291;DHT22;11814;44.686;10.842;2023-07-13T02:44:47;26.60;96.00
23291;DHT22;11814;44.686;10.842;2023-07-13T02:47:13;26.60;96.10
23291;DHT22;11814;44.686;10.842;2023-07-13T02:49:39;26.60;96.20
23291;DHT22;11814;44.686;10.842;2023-07-13T02:52:05;26.60;96.30
23291;DHT22;11814;44.686;10.842;2023-07-13T02:54:34;26.50;96.40
23291;DHT22;11814;44.686;10.842;2023-07-13T02:57:00;26.50;96.50
23291;DHT22;11814;44.686;10.842;2023-07-13T02:59:26;26.50;96.60
23291;DHT22;11814;44.686;10.842;2023-07-13T03:01:53;26.50;96.80
23291;DHT22;11814;44.686;10.842;2023-07-13T03:04:19;26.60;96.80
23291;DHT22;11814;44.686;10.842;2023-07-13T03:06:47;26.60;96.90
23291;DHT22;11814;44.686;10.842;2023-07-13T03:09:13;26.50;97.00
23291;DHT22;11814;44.686;10.842;2023-07-13T03:11:38;26.50;96.90
23291;DHT22;11814;44.686;10.842;2023-07-13T03:14:04;26.50;96.90
23291;DHT22;11814;44.686;10.842;2023-07-13T03:16:30;26.60;96.80
23291;DHT22;11814;44.686;10.842;2023-07-13T03:18:56;26.60;97.20
23291;DHT22;11814;44.686;10.842;2023-07-13T03:21:22;26.60;96.90
23291;DHT22;11814;44.686;10.842;2023-07-13T03:23:47;26.60;96.90
23291;DHT22;11814;44.686;10.842;2023-07-13T03:26:19;26.70;96.70
23291;DHT22;11814;44.686;10.842;2023-07-13T03:28:45;26.70;96.60
23291;DHT22;11814;44.686;10.842;2023-07-13T03:31:16;26.70;96.60
23291;DHT22;11814;44.686;10.842;2023-07-13T03:33:43;26.60;96.50
23291;DHT22;11814;44.686;10.842;2023-07-13T03:36:17;26.60;96.80
23291;DHT22;11814;44.686;10.842;2023-07-13T03:38:51;26.60;96.80
23291;DHT22;11814;44.686;10.842;2023-07-13T03:41:17;26.50;96.70
23291;DHT22;11814;44.686;10.842;2023-07-13T03:43:43;26.40;96.80
23291;DHT22;11814;44.686;10.842;2023-07-13T03:46:09;26.40;97.10
23291;DHT22;11814;44.686;10.842;2023-07-13T03:48:35;26.50;97.20
23291;DHT22;11814;44.686;10.842;2023-07-13T03:51:00;26.50;97.10
23291;DHT22;11814;44.686;10.842;2023-07-13T03:53:26;26.50;97.00
23291;DHT22;11814;44.686;10.842;2023-07-13T03:55:52;26.50;96.90
23291;DHT22;11814;44.686;10.842;2023-07-13T04:00:49;26.40;96.70
23291;DHT22;11814;44.686;10.842;2023-07-13T04:03:15;26.40;96.80
23291;DHT22;11814;44.686;10.842;2023-07-13T04:05:41;26.40;97.40
23291;DHT22;11814;44.686;10.842;2023-07-13T04:08:07;26.40;97.20
23291;DHT22;11814;44.686;10.842;2023-07-13T04:10:33;26.40;97.40
23291;DHT22;11814;44.686;10.842;2023-07-13T04:12:59;26.40;97.80
23291;DHT22;11814;44.686;10.842;2023-07-13T04:15:24;26.40;97.70
23291;DHT22;11814;44.686;10.842;2023-07-13T04:17:50;26.40;97.50
23291;DHT22;11814;44.686;10.842;2023-07-13T04:20:15;26.40;97.50
23291;DHT22;11814;44.686;10.842;2023-07-13T04:22:41;26.40;97.50
23291;DHT22;11814;44.686;10.842;2023-07-13T04:25:07;26.40;97.40
23291;DHT22;11814;44.686;10.842;2023-07-13T04:27:33;26.40;97.40
23291;DHT22;11814;44.686;10.842;2023-07-13T04:29:58;26.40;97.20
23291;DHT22;11814;44.686;10.842;2023-07-13T04:32:24;26.40;97.00
23291;DHT22;11814;44.686;10.842;2023-07-13T04:34:49;26.50;97.00
23291;DHT22;11814;44.686;10.842;2023-07-13T04:37:19;26.50;96.60
23291;DHT22;11814;44.686;10.842;2023-07-13T04:39:45;26.50;96.10
23291;DHT22;11814;44.686;10.842;2023-07-13T04:42:11;26.50;95.90
23291;DHT22;11814;44.686;10.842;2023-07-13T04:44:36;26.50;95.70
23291;DHT22;11814;44.686;10.842;2023-07-13T04:47:02;26.40;95.70
23291;DHT22;11814;44.686;10.842;2023-07-13T04:49:28;26.40;95.70
23291;DHT22;11814;44.686;10.842;2023-07-13T04:51:53;26.40;95.80
23291;DHT22;11814;44.686;10.842;2023-07-13T04:54:20;26.40;95.90
23291;DHT22;11814;44.686;10.842;2023-07-13T04:56:46;26.30;96.00
23291;DHT22;11814;44.686;10.842;2023-07-13T04:59:12;26.20;96.30
23291;DHT22;11814;44.686;10.842;2023-07-13T05:01:37;26.20;96.40
23291;DHT22;11814;44.686;10.842;2023-07-13T05:04:03;26.20;96.80
23291;DHT22;11814;44.686;10.842;2023-07-13T05:06:29;26.10;96.90
23291;DHT22;11814;44.686;10.842;2023-07-13T05:08:56;26.10;96.80
23291;DHT22;11814;44.686;10.842;2023-07-13T05:11:21;26.10;97.00
23291;DHT22;11814;44.686;10.842;2023-07-13T05:13:47;26.00;96.80
23291;DHT22;11814;44.686;10.842;2023-07-13T05:16:12;26.00;96.80
23291;DHT22;11814;44.686;10.842;2023-07-13T05:18:38;26.00;96.70
23291;DHT22;11814;44.686;10.842;2023-07-13T05:21:09;26.00;96.60
23291;DHT22;11814;44.686;10.842;2023-07-13T05:23:36;26.10;96.40
23291;DHT22;11814;44.686;10.842;2023-07-13T05:26:03;26.10;96.10
23291;DHT22;11814;44.686;10.842;2023-07-13T05:28:30;26.10;96.30
23291;DHT22;11814;44.686;10.842;2023-07-13T05:30:56;26.10;95.80
23291;DHT22;11814;44.686;10.842;2023-07-13T05:33:22;26.20;95.60
23291;DHT22;11814;44.686;10.842;2023-07-13T05:35:48;26.20;95.30
23291;DHT22;11814;44.686;10.842;2023-07-13T05:38:14;26.30;95.20
23291;DHT22;11814;44.686;10.842;2023-07-13T05:40:39;26.30;95.10
23291;DHT22;11814;44.686;10.842;2023-07-13T05:43:07;26.40;94.70
23291;DHT22;11814;44.686;10.842;2023-07-13T05:45:33;26.50;94.40
23291;DHT22;11814;44.686;10.842;2023-07-13T05:47:58;26.50;94.20
23291;DHT22;11814;44.686;10.842;2023-07-13T05:50:25;26.50;93.90
23291;DHT22;11814;44.686;10.842;2023-07-13T05:52:51;26.50;93.90
23291;DHT22;11814;44.686;10.842;2023-07-13T05:55:18;26.50;93.80
23291;DHT22;11814;44.686;10.842;2023-07-13T05:57:43;26.50;93.70
23291;DHT22;11814;44.686;10.842;2023-07-13T06:00:09;26.60;93.60
23291;DHT22;11814;44.686;10.842;2023-07-13T06:02:35;26.70;93.30
23291;DHT22;11814;44.686;10.842;2023-07-13T06:05:01;26.80;93.10
23291;DHT22;11814;44.686;10.842;2023-07-13T06:07:26;27.00;92.90
23291;DHT22;11814;44.686;10.842;2023-07-13T06:09:52;27.20;92.50
23291;DHT22;11814;44.686;10.842;2023-07-13T06:12:18;27.40;92.10
23291;DHT22;11814;44.686;10.842;2023-07-13T06:14:44;27.40;91.60
23291;DHT22;11814;44.686;10.842;2023-07-13T06:17:09;27.50;91.20
23291;DHT22;11814;44.686;10.842;2023-07-13T06:19:35;27.60;90.80
23291;DHT22;11814;44.686;10.842;2023-07-13T06:22:01;27.70;90.50
23291;DHT22;11814;44.686;10.842;2023-07-13T06:24:26;27.90;90.30
23291;DHT22;11814;44.686;10.842;2023-07-13T06:26:52;27.80;89.20
23291;DHT22;11814;44.686;10.842;2023-07-13T06:29:18;27.70;88.70
23291;DHT22;11814;44.686;10.842;2023-07-13T06:31:43;27.70;88.30
23291;DHT22;11814;44.686;10.842;2023-07-13T06:34:09;27.60;88.40
23291;DHT22;11814;44.686;10.842;2023-07-13T06:36:35;27.50;89.20
23291;DHT22;11814;44.686;10.842;2023-07-13T06:39:02;27.50;89.20
23291;DHT22;11814;44.686;10.842;2023-07-13T06:41:27;27.70;89.50
23291;DHT22;11814;44.686;10.842;2023-07-13T06:43:53;27.90;88.70
23291;DHT22;11814;44.686;10.842;2023-07-13T06:46:21;28.10;87.10
23291;DHT22;11814;44.686;10.842;2023-07-13T06:48:47;28.10;86.00
23291;DHT22;11814;44.686;10.842;2023-07-13T06:51:12;28.60;84.70
23291;DHT22;11814;44.686;10.842;2023-07-13T06:53:38;28.80;83.30
23291;DHT22;11814;44.686;10.842;2023-07-13T06:56:04;28.80;82.00
23291;DHT22;11814;44.686;10.842;2023-07-13T06:58:30;28.90;81.70
23291;DHT22;11814;44.686;10.842;2023-07-13T07:00:56;28.70;81.70
23291;DHT22;11814;44.686;10.842;2023-07-13T07:03:22;28.60;81.80
23291;DHT22;11814;44.686;10.842;2023-07-13T07:05:47;28.50;82.30
23291;DHT22;11814;44.686;10.842;2023-07-13T07:08:13;28.40;82.30
23291;DHT22;11814;44.686;10.842;2023-07-13T07:10:40;28.30;82.00
23291;DHT22;11814;44.686;10.842;2023-07-13T07:13:06;28.10;82.30
23291;DHT22;11814;44.686;10.842;2023-07-13T07:15:32;27.90;82.80
23291;DHT22;11814;44.686;10.842;2023-07-13T07:17:59;27.70;82.70
23291;DHT22;11814;44.686;10.842;2023-07-13T07:20:24;27.70;82.90
23291;DHT22;11814;44.686;10.842;2023-07-13T07:22:50;27.60;83.30
23291;DHT22;11814;44.686;10.842;2023-07-13T07:25:16;27.50;84.10
23291;DHT22;11814;44.686;10.842;2023-07-13T07:27:41;27.40;84.70
23291;DHT22;11814;44.686;10.842;2023-07-13T07:30:07;27.40;85.10
23291;DHT22;11814;44.686;10.842;2023-07-13T07:32:33;27.40;85.70
23291;DHT22;11814;44.686;10.842;2023-07-13T07:34:59;27.30;85.70
23291;DHT22;11814;44.686;10.842;2023-07-13T07:37:25;27.40;85.60
23291;DHT22;11814;44.686;10.842;2023-07-13T07:39:50;27.30;85.80
23291;DHT22;11814;44.686;10.842;2023-07-13T07:42:16;27.30;86.10
23291;DHT22;11814;44.686;10.842;2023-07-13T07:44:42;27.20;86.40
23291;DHT22;11814;44.686;10.842;2023-07-13T07:47:08;27.30;86.60
23291;DHT22;11814;44.686;10.842;2023-07-13T07:49:35;27.20;86.10
23291;DHT22;11814;44.686;10.842;2023-07-13T07:52:00;27.20;86.20
23291;DHT22;11814;44.686;10.842;2023-07-13T07:54:26;27.10;86.40
23291;DHT22;11814;44.686;10.842;2023-07-13T07:56:52;27.00;86.70
23291;DHT22;11814;44.686;10.842;2023-07-13T07:59:19;27.10;86.80
23291;DHT22;11814;44.686;10.842;2023-07-13T08:01:44;27.00;86.70
23291;DHT22;11814;44.686;10.842;2023-07-13T08:04:12;26.90;86.80
23291;DHT22;11814;44.686;10.842;2023-07-13T08:06:37;26.90;87.30
23291;DHT22;11814;44.686;10.842;2023-07-13T08:09:03;26.80;87.50
23291;DHT22;11814;44.686;10.842;2023-07-13T08:11:30;26.70;88.30
23291;DHT22;11814;44.686;10.842;2023-07-13T08:13:55;26.70;88.80
23291;DHT22;11814;44.686;10.842;2023-07-13T08:16:21;26.70;89.50
23291;DHT22;11814;44.686;10.842;2023-07-13T08:18:47;26.60;90.00
23291;DHT22;11814;44.686;10.842;2023-07-13T08:21:13;26.60;90.20
23291;DHT22;11814;44.686;10.842;2023-07-13T08:23:39;26.60;90.40
23291;DHT22;11814;44.686;10.842;2023-07-13T08:26:04;26.60;90.70
23291;DHT22;11814;44.686;10.842;2023-07-13T08:28:30;26.60;90.90
23291;DHT22;11814;44.686;10.842;2023-07-13T08:31:05;26.50;91.30
23291;DHT22;11814;44.686;10.842;2023-07-13T08:33:31;26.50;91.50
23291;DHT22;11814;44.686;10.842;2023-07-13T08:35:57;26.50;91.60
23291;DHT22;11814;44.686;10.842;2023-07-13T08:38:23;26.50;91.70
23291;DHT22;11814;44.686;10.842;2023-07-13T08:40:53;26.50;91.70
23291;DHT22;11814;44.686;10.842;2023-07-13T08:43:30;26.50;91.70
23291;DHT22;11814;44.686;10.842;2023-07-13T08:46:23;26.40;91.80
23291;DHT22;11814;44.686;10.842;2023-07-13T08:48:55;26.40;92.10
23291;DHT22;11814;44.686;10.842;2023-07-13T08:51:49;26.40;92.20
23291;DHT22;11814;44.686;10.842;2023-07-13T08:56:49;26.40;92.80
23291;DHT22;11814;44.686;10.842;2023-07-13T08:59:21;26.30;93.10
23291;DHT22;11814;44.686;10.842;2023-07-13T09:15:49;25.70;97.20
23291;DHT22;11814;44.686;10.842;2023-07-13T09:18:37;25.70;97.60
23291;DHT22;11814;44.686;10.842;2023-07-13T09:23:36;25.70;98.80
23291;DHT22;11814;44.686;10.842;2023-07-13T09:26:04;25.70;99.40
23291;DHT22;11814;44.686;10.842;2023-07-13T09:28:38;25.70;99.90
23291;DHT22;11814;44.686;10.842;2023-07-13T09:31:20;25.70;99.90
23291;DHT22;11814;44.686;10.842;2023-07-13T09:33:49;25.70;99.90
23291;DHT22;11814;44.686;10.842;2023-07-13T09:42:07;25.60;99.90
23291;DHT22;11814;44.686;10.842;2023-07-13T09:44:42;25.50;99.90
23291;DHT22;11814;44.686;10.842;2023-07-13T09:47:19;25.60;99.90
23291;DHT22;11814;44.686;10.842;2023-07-13T09:50:00;25.60;99.90
23291;DHT22;11814;44.686;10.842;2023-07-13T09:52:28;25.70;99.90
23291;DHT22;11814;44.686;10.842;2023-07-13T09:55:11;25.80;99.90
23291;DHT22;11814;44.686;10.842;2023-07-13T09:57:47;26.00;99.90
23291;DHT22;11814;44.686;10.842;2023-07-13T10:00:25;26.10;99.90
23291;DHT22;11814;44.686;10.842;2023-07-13T10:05:38;26.40;99.90
23291;DHT22;11814;44.686;10.842;2023-07-13T10:08:04;26.60;99.90
23291;DHT22;11814;44.686;10.842;2023-07-13T10:10:32;26.80;99.90
23291;DHT22;11814;44.686;10.842;2023-07-13T10:12:58;27.00;99.90
23291;DHT22;11814;44.686;10.842;2023-07-13T10:15:25;27.30;99.90
23291;DHT22;11814;44.686;10.842;2023-07-13T10:17:53;27.60;99.30
23291;DHT22;11814;44.686;10.842;2023-07-13T10:20:21;27.80;97.90
23291;DHT22;11814;44.686;10.842;2023-07-13T10:23:03;27.90;97.00
23291;DHT22;11814;44.686;10.842;2023-07-13T10:25:32;28.10;95.90
23291;DHT22;11814;44.686;10.842;2023-07-13T10:28:25;28.30;94.60
23291;DHT22;11814;44.686;10.842;2023-07-13T10:30:53;28.40;93.70
23291;DHT22;11814;44.686;10.842;2023-07-13T10:33:21;28.40;93.40
23291;DHT22;11814;44.686;10.842;2023-07-13T10:35:50;28.50;92.90
23291;DHT22;11814;44.686;10.842;2023-07-13T10:38:21;28.50;92.30
23291;DHT22;11814;44.686;10.842;2023-07-13T10:41:11;28.50;91.90
23291;DHT22;11814;44.686;10.842;2023-07-13T10:43:47;28.50;91.50
23291;DHT22;11814;44.686;10.842;2023-07-13T10:46:18;28.60;91.50
23291;DHT22;11814;44.686;10.842;2023-07-13T10:48:47;28.70;91.10
23291;DHT22;11814;44.686;10.842;2023-07-13T10:51:16;28.80;90.70
23291;DHT22;11814;44.686;10.842;2023-07-13T10:53:42;28.90;90.50
23291;DHT22;11814;44.686;10.842;2023-07-13T10:56:28;29.00;90.30
23291;DHT22;11814;44.686;10.842;2023-07-13T11:04:29;29.00;89.40
23291;DHT22;11814;44.686;10.842;2023-07-13T11:07:16;29.00;89.10
23291;DHT22;11814;44.686;10.842;2023-07-13T11:09:43;29.20;88.30
23291;DHT22;11814;44.686;10.842;2023-07-13T11:19:54;29.40;87.00
23291;DHT22;11814;44.686;10.842;2023-07-13T11:22:25;29.50;86.90
23291;DHT22;11814;44.686;10.842;2023-07-13T11:30:24;29.80;86.00
23291;DHT22;11814;44.686;10.842;2023-07-13T11:33:01;29.80;86.00
23291;DHT22;11814;44.686;10.842;2023-07-13T11:35:34;29.80;86.00
23291;DHT22;11814;44.686;10.842;2023-07-13T11:38:02;30.00;85.90
23291;DHT22;11814;44.686;10.842;2023-07-13T11:40:29;30.00;85.80
23291;DHT22;11814;44.686;10.842;2023-07-13T11:43:02;30.00;85.40
23291;DHT22;11814;44.686;10.842;2023-07-13T11:45:32;29.90;85.40
23291;DHT22;11814;44.686;10.842;2023-07-13T11:47:57;30.00;85.70
23291;DHT22;11814;44.686;10.842;2023-07-13T11:50:25;30.00;85.30
23291;DHT22;11814;44.686;10.842;2023-07-13T11:52:53;29.90;84.90
23291;DHT22;11814;44.686;10.842;2023-07-13T11:55:21;30.00;85.00
23291;DHT22;11814;44.686;10.842;2023-07-13T11:57:51;30.10;84.60
23291;DHT22;11814;44.686;10.842;2023-07-13T12:00:22;30.00;84.50
23291;DHT22;11814;44.686;10.842;2023-07-13T12:02:51;30.10;84.40
23291;DHT22;11814;44.686;10.842;2023-07-13T12:05:18;30.10;84.80
23291;DHT22;11814;44.686;10.842;2023-07-13T12:07:45;30.30;85.10
23291;DHT22;11814;44.686;10.842;2023-07-13T12:10:21;30.40;85.20
23291;DHT22;11814;44.686;10.842;2023-07-13T12:12:53;30.50;85.50
23291;DHT22;11814;44.686;10.842;2023-07-13T12:15:21;30.60;85.80
23291;DHT22;11814;44.686;10.842;2023-07-13T12:17:48;30.70;85.20
23291;DHT22;11814;44.686;10.842;2023-07-13T12:20:30;30.80;84.50
23291;DHT22;11814;44.686;10.842;2023-07-13T12:22:59;31.00;84.60
23291;DHT22;11814;44.686;10.842;2023-07-13T12:25:24;31.00;84.40
23291;DHT22;11814;44.686;10.842;2023-07-13T12:27:51;31.10;84.00
23291;DHT22;11814;44.686;10.842;2023-07-13T12:30:32;31.10;83.40
23291;DHT22;11814;44.686;10.842;2023-07-13T12:33:11;31.10;83.30
23291;DHT22;11814;44.686;10.842;2023-07-13T12:35:47;31.20;83.00
23291;DHT22;11814;44.686;10.842;2023-07-13T12:38:15;31.20;82.80
23291;DHT22;11814;44.686;10.842;2023-07-13T12:40:41;31.20;82.40
23291;DHT22;11814;44.686;10.842;2023-07-13T12:43:13;31.20;82.10
23291;DHT22;11814;44.686;10.842;2023-07-13T12:48:39;31.20;81.70
23291;DHT22;11814;44.686;10.842;2023-07-13T12:51:10;31.10;81.40
23291;DHT22;11814;44.686;10.842;2023-07-13T12:53:41;31.20;81.50
23291;DHT22;11814;44.686;10.842;2023-07-13T12:56:15;31.20;81.30
23291;DHT22;11814;44.686;10.842;2023-07-13T12:58:43;31.30;81.20
23291;DHT22;11814;44.686;10.842;2023-07-13T13:01:13;31.40;80.90
23291;DHT22;11814;44.686;10.842;2023-07-13T13:03:52;31.50;80.70
23291;DHT22;11814;44.686;10.842;2023-07-13T13:08:46;31.70;80.20
23291;DHT22;11814;44.686;10.842;2023-07-13T13:11:12;31.70;80.00
23291;DHT22;11814;44.686;10.842;2023-07-13T13:13:45;31.70;78.90
23291;DHT22;11814;44.686;10.842;2023-07-13T13:16:42;31.70;78.80
23291;DHT22;11814;44.686;10.842;2023-07-13T13:19:17;31.70;79.10
23291;DHT22;11814;44.686;10.842;2023-07-13T13:21:45;31.80;78.90
23291;DHT22;11814;44.686;10.842;2023-07-13T13:24:16;31.80;79.00
23291;DHT22;11814;44.686;10.842;2023-07-13T13:26:43;32.00;78.80
23291;DHT22;11814;44.686;10.842;2023-07-13T13:29:13;32.00;78.00
23291;DHT22;11814;44.686;10.842;2023-07-13T13:31:39;32.00;78.10
23291;DHT22;11814;44.686;10.842;2023-07-13T13:34:09;32.10;78.50
23291;DHT22;11814;44.686;10.842;2023-07-13T13:36:35;32.10;78.30
23291;DHT22;11814;44.686;10.842;2023-07-13T13:39:01;32.00;78.10
23291;DHT22;11814;44.686;10.842;2023-07-13T13:41:27;32.00;78.00
23291;DHT22;11814;44.686;10.842;2023-07-13T13:43:53;32.10;78.10
23291;DHT22;11814;44.686;10.842;2023-07-13T13:46:21;32.20;77.50
23291;DHT22;11814;44.686;10.842;2023-07-13T13:48:48;32.30;77.20
23291;DHT22;11814;44.686;10.842;2023-07-13T13:51:19;32.40;77.00
23291;DHT22;11814;44.686;10.842;2023-07-13T13:53:45;32.40;76.40
23291;DHT22;11814;44.686;10.842;2023-07-13T13:56:16;32.50;76.00
23291;DHT22;11814;44.686;10.842;2023-07-13T13:58:42;32.60;75.30
23291;DHT22;11814;44.686;10.842;2023-07-13T14:01:21;32.60;74.80
23291;DHT22;11814;44.686;10.842;2023-07-13T14:03:50;32.70;74.60
23291;DHT22;11814;44.686;10.842;2023-07-13T14:06:19;32.70;74.30
23291;DHT22;11814;44.686;10.842;2023-07-13T14:08:45;32.80;74.00
23291;DHT22;11814;44.686;10.842;2023-07-13T14:11:18;32.70;74.00
23291;DHT22;11814;44.686;10.842;2023-07-13T14:13:54;32.70;74.10
23291;DHT22;11814;44.686;10.842;2023-07-13T14:16:22;32.80;73.80
23291;DHT22;11814;44.686;10.842;2023-07-13T14:18:48;32.80;73.70
23291;DHT22;11814;44.686;10.842;2023-07-13T14:21:20;32.70;73.70
23291;DHT22;11814;44.686;10.842;2023-07-13T14:23:47;32.70;73.90
23291;DHT22;11814;44.686;10.842;2023-07-13T14:26:15;32.70;74.10
23291;DHT22;11814;44.686;10.842;2023-07-13T14:28:47;32.60;74.00
23291;DHT22;11814;44.686;10.842;2023-07-13T14:31:15;32.60;74.00
23291;DHT22;11814;44.686;10.842;2023-07-13T14:33:42;32.60;74.20
23291;DHT22;11814;44.686;10.842;2023-07-13T14:36:31;32.50;74.20
23291;DHT22;11814;44.686;10.842;2023-07-13T14:38:58;32.50;74.90
23291;DHT22;11814;44.686;10.842;2023-07-13T14:41:25;32.50;75.10
23291;DHT22;11814;44.686;10.842;2023-07-13T14:43:51;32.50;74.70
23291;DHT22;11814;44.686;10.842;2023-07-13T14:46:31;32.50;74.80
23291;DHT22;11814;44.686;10.842;2023-07-13T14:49:04;32.40;75.20
23291;DHT22;11814;44.686;10.842;2023-07-13T14:51:31;32.30;75.40
23291;DHT22;11814;44.686;10.842;2023-07-13T14:54:04;32.20;75.60
23291;DHT22;11814;44.686;10.842;2023-07-13T14:56:30;32.20;75.90
23291;DHT22;11814;44.686;10.842;2023-07-13T14:58:55;32.20;75.90
23291;DHT22;11814;44.686;10.842;2023-07-13T15:01:21;32.30;75.90
23291;DHT22;11814;44.686;10.842;2023-07-13T15:03:50;32.40;75.90
23291;DHT22;11814;44.686;10.842;2023-07-13T15:06:16;32.40;75.60
23291;DHT22;11814;44.686;10.842;2023-07-13T15:08:42;32.60;75.50
23291;DHT22;11814;44.686;10.842;2023-07-13T15:11:09;32.60;74.60
23291;DHT22;11814;44.686;10.842;2023-07-13T15:13:38;32.70;74.30
23291;DHT22;11814;44.686;10.842;2023-07-13T15:16:05;32.80;74.20
23291;DHT22;11814;44.686;10.842;2023-07-13T15:18:35;32.80;73.90
23291;DHT22;11814;44.686;10.842;2023-07-13T15:21:03;32.90;73.40
23291;DHT22;11814;44.686;10.842;2023-07-13T15:23:29;32.90;73.00
23291;DHT22;11814;44.686;10.842;2023-07-13T15:25:55;32.90;72.50
23291;DHT22;11814;44.686;10.842;2023-07-13T15:28:21;33.00;72.50
23291;DHT22;11814;44.686;10.842;2023-07-13T15:30:48;33.00;72.30
23291;DHT22;11814;44.686;10.842;2023-07-13T15:33:15;33.00;71.90
23291;DHT22;11814;44.686;10.842;2023-07-13T15:35:44;33.10;72.30
23291;DHT22;11814;44.686;10.842;2023-07-13T15:38:17;33.10;72.10
23291;DHT22;11814;44.686;10.842;2023-07-13T15:40:43;33.10;72.10
23291;DHT22;11814;44.686;10.842;2023-07-13T15:43:13;33.10;72.10
23291;DHT22;11814;44.686;10.842;2023-07-13T15:45:40;33.10;71.90
23291;DHT22;11814;44.686;10.842;2023-07-13T15:48:16;33.10;71.90
23291;DHT22;11814;44.686;10.842;2023-07-13T15:50:54;33.00;71.60
23291;DHT22;11814;44.686;10.842;2023-07-13T15:53:28;32.90;72.00
23291;DHT22;11814;44.686;10.842;2023-07-13T15:55:54;32.80;72.20
23291;DHT22;11814;44.686;10.842;2023-07-13T15:58:20;32.80;72.30
23291;DHT22;11814;44.686;10.842;2023-07-13T16:00:47;32.90;72.60
23291;DHT22;11814;44.686;10.842;2023-07-13T16:03:17;33.00;72.70
23291;DHT22;11814;44.686;10.842;2023-07-13T16:05:42;33.00;72.40
23291;DHT22;11814;44.686;10.842;2023-07-13T16:08:30;33.00;72.10
23291;DHT22;11814;44.686;10.842;2023-07-13T16:10:56;33.00;72.30
23291;DHT22;11814;44.686;10.842;2023-07-13T16:13:22;33.00;72.30
23291;DHT22;11814;44.686;10.842;2023-07-13T16:15:50;32.90;72.00
23291;DHT22;11814;44.686;10.842;2023-07-13T16:18:16;32.80;71.80
23291;DHT22;11814;44.686;10.842;2023-07-13T16:20:48;32.70;71.50
23291;DHT22;11814;44.686;10.842;2023-07-13T16:23:15;32.70;71.50